Time;durP1;ratioP1;P1;durP2;ratioP2;P2;SDS_P1;SDS_P2;PMS_P1;PMS_P2;Temp;Humidity;BMP_temperature;BMP_pressure;BME280_temperature;BME280_humidity;BME280_pressure;Samples;Min_cycle;Max_cycle;Signal;HPM_P1;HPM_P2
2023/03/03 00:01:03;;;;;;;30.65;15.52;;;1.20;99.90;;;;;;5002432;28;20141;-83
2023/03/03 00:03:29;;;;;;;31.25;16.15;;;1.20;99.90;;;;;;4987110;28;20045;-83
2023/03/03 00:05:54;;;;;;;35.58;15.95;;;1.20;99.90;;;;;;4968924;28;20045;-84
2023/03/03 00:08:21;;;;;;;31.38;15.00;;;1.20;99.90;;;;;;4995695;28;20050;-83
2023/03/03 00:10:47;;;;;;;36.47;17.50;;;1.20;99.90;;;;;;4985396;28;20034;-84
2023/03/03 00:13:18;;;;;;;33.10;15.65;;;1.20;99.90;;;;;;4983586;28;20092;-84
2023/03/03 00:15:45;;;;;;;35.67;15.98;;;1.20;99.90;;;;;;4999060;28;20140;-83
2023/03/03 00:18:32;;;;;;;38.13;17.02;;;1.10;99.90;;;;;;5001057;28;20045;-84
2023/03/03 00:21:00;;;;;;;38.88;17.02;;;1.10;99.90;;;;;;5016426;28;20134;-84
2023/03/03 00:23:36;;;;;;;35.30;16.67;;;1.10;99.90;;;;;;4995301;28;20542;-84
2023/03/03 00:26:15;;;;;;;32.47;15.95;;;1.10;99.90;;;;;;4986341;28;20038;-83
2023/03/03 00:28:49;;;;;;;35.60;16.20;;;1.10;99.90;;;;;;5001296;28;20488;-83
2023/03/03 00:31:24;;;;;;;36.88;16.60;;;1.10;99.90;;;;;;4989945;28;20423;-84
2023/03/03 00:33:54;;;;;;;32.40;15.18;;;1.10;99.90;;;;;;4984180;28;20395;-83
2023/03/03 00:36:27;;;;;;;33.83;16.80;;;1.10;99.90;;;;;;4983221;28;20048;-84
2023/03/03 00:38:55;;;;;;;32.78;15.98;;;1.10;99.90;;;;;;4980373;28;20044;-83
2023/03/03 00:41:25;;;;;;;34.55;15.48;;;1.10;99.90;;;;;;4982109;28;20080;-84
2023/03/03 00:43:52;;;;;;;35.55;15.18;;;1.10;99.90;;;;;;4999717;28;20042;-83
2023/03/03 00:46:19;;;;;;;37.08;16.35;;;1.10;99.90;;;;;;4986134;28;20124;-83
2023/03/03 00:48:45;;;;;;;34.63;15.70;;;1.10;99.90;;;;;;4980606;28;20045;-83
2023/03/03 00:51:33;;;;;;;41.55;16.85;;;1.00;99.90;;;;;;4969646;28;20050;-83
2023/03/03 00:53:59;;;;;;;42.83;17.60;;;1.00;99.90;;;;;;5006810;28;20042;-83
2023/03/03 00:56:26;;;;;;;42.35;18.02;;;1.10;99.90;;;;;;4998983;28;20455;-83
2023/03/03 00:58:51;;;;;;;48.42;19.42;;;0.90;99.90;;;;;;5003593;28;20046;-82
2023/03/03 01:01:18;;;;;;;60.22;17.67;;;1.00;99.90;;;;;;4958206;28;20044;-82
2023/03/03 01:03:44;;;;;;;63.78;18.63;;;1.10;99.90;;;;;;4998939;28;20116;-83
2023/03/03 01:06:10;;;;;;;58.53;17.83;;;0.90;99.90;;;;;;4981829;28;20034;-83
2023/03/03 01:08:36;;;;;;;42.45;18.17;;;0.90;99.90;;;;;;4980525;28;20042;-82
2023/03/03 01:11:09;;;;;;;53.88;19.50;;;0.90;99.90;;;;;;4970385;28;20034;-83
2023/03/03 01:13:36;;;;;;;45.83;17.45;;;0.80;99.90;;;;;;4980831;28;20039;-83
2023/03/03 01:16:02;;;;;;;46.63;16.45;;;0.80;99.90;;;;;;4985897;28;20035;-83
2023/03/03 01:18:29;;;;;;;43.83;17.83;;;0.80;99.90;;;;;;4996959;28;20052;-83
2023/03/03 01:20:55;;;;;;;42.55;17.40;;;0.80;99.90;;;;;;4998531;28;20731;-83
2023/03/03 01:23:20;;;;;;;49.63;17.05;;;0.80;99.90;;;;;;4981377;28;20052;-83
2023/03/03 01:25:46;;;;;;;43.08;17.83;;;0.80;99.90;;;;;;5008300;28;20042;-83
2023/03/03 01:28:12;;;;;;;52.17;17.15;;;0.80;99.90;;;;;;4988999;28;20049;-82
2023/03/03 01:30:38;;;;;;;41.65;16.98;;;0.80;99.90;;;;;;4983772;28;20144;-82
2023/03/03 01:33:04;;;;;;;52.33;18.75;;;0.80;99.90;;;;;;4990151;28;20073;-83
2023/03/03 01:35:29;;;;;;;66.97;18.80;;;0.80;99.90;;;;;;4967719;28;20069;-83
2023/03/03 01:37:56;;;;;;;64.68;20.33;;;0.80;99.90;;;;;;4973321;28;20035;-83
2023/03/03 01:40:25;;;;;;;56.85;17.92;;;1.40;99.90;;;;;;4997554;28;20046;-83
2023/03/03 01:42:51;;;;;;;96.25;19.73;;;0.80;99.90;;;;;;4986826;28;20088;-83
2023/03/03 01:45:49;;;;;;;65.10;19.23;;;0.80;99.90;;;;;;5001842;28;20064;-83
2023/03/03 01:48:21;;;;;;;48.95;18.10;;;0.80;99.90;;;;;;4992958;28;20411;-82
2023/03/03 01:50:55;;;;;;;52.63;19.80;;;0.80;99.90;;;;;;5004640;28;20539;-83
2023/03/03 01:53:27;;;;;;;73.53;21.40;;;0.80;99.90;;;;;;5002805;28;20305;-83
2023/03/03 01:55:53;;;;;;;63.72;19.38;;;0.80;99.90;;;;;;4981970;28;20065;-83
2023/03/03 01:58:29;;;;;;;79.05;19.35;;;0.80;99.90;;;;;;4999337;28;20050;-83
2023/03/03 02:01:02;;;;;;;77.63;20.48;;;0.90;99.90;;;;;;4987408;28;20408;-82
2023/03/03 02:03:29;;;;;;;118.32;22.80;;;1.50;99.90;;;;;;5010486;28;20064;-83
2023/03/03 02:05:58;;;;;;;159.68;26.27;;;0.90;99.90;;;;;;4998743;28;20041;-83
2023/03/03 02:08:31;;;;;;;110.18;21.75;;;0.80;99.90;;;;;;5005230;28;20037;-83
2023/03/03 02:10:57;;;;;;;110.13;21.15;;;0.80;99.90;;;;;;5013890;28;20107;-83
2023/03/03 02:13:23;;;;;;;144.00;25.13;;;0.80;99.90;;;;;;4985195;28;20030;-83
2023/03/03 02:15:49;;;;;;;125.55;20.20;;;0.80;99.90;;;;;;4983321;28;20038;-82
2023/03/03 02:18:17;;;;;;;176.52;24.83;;;0.80;99.90;;;;;;4990475;28;20037;-83
2023/03/03 02:21:10;;;;;;;128.30;22.67;;;0.70;99.90;;;;;;4999630;28;20045;-83
2023/03/03 02:23:39;;;;;;;;;;;0.80;99.90;;;;;;4989144;28;20284;-84
2023/03/03 02:26:17;;;;;;;143.60;26.00;;;0.80;99.90;;;;;;5018355;28;20453;-84
2023/03/03 02:28:43;;;;;;;167.52;22.27;;;0.80;99.90;;;;;;5014029;28;20088;-84
2023/03/03 02:31:16;;;;;;;122.45;21.40;;;0.80;99.90;;;;;;4993494;28;20033;-84
2023/03/03 02:33:44;;;;;;;153.25;23.98;;;1.10;99.90;;;;;;5018804;28;20050;-84
2023/03/03 02:36:14;;;;;;;135.15;19.95;;;0.80;99.90;;;;;;5002687;28;20395;-84
2023/03/03 02:38:58;;;;;;;136.88;21.38;;;0.80;99.90;;;;;;5003172;28;20034;-84
2023/03/03 02:41:27;;;;;;;164.75;23.98;;;0.80;99.90;;;;;;4988362;28;20034;-84
2023/03/03 02:44:14;;;;;;;99.00;17.30;;;0.80;99.90;;;;;;4994247;28;20038;-84
2023/03/03 02:46:43;;;;;;;110.07;18.00;;;0.90;99.90;;;;;;4988356;28;20041;-84
2023/03/03 02:49:10;;;;;;;73.55;14.98;;;1.00;99.90;;;;;;5013516;28;20117;-84
2023/03/03 02:51:38;;;;;;;114.85;17.52;;;0.90;99.90;;;;;;5014935;28;20078;-84
2023/03/03 02:54:04;;;;;;;90.15;15.55;;;0.90;99.90;;;;;;5016076;28;20049;-84
2023/03/03 02:56:31;;;;;;;92.90;14.93;;;0.80;99.90;;;;;;5000934;28;20106;-83
2023/03/03 02:58:56;;;;;;;70.50;14.45;;;0.80;99.90;;;;;;4983546;28;20061;-83
2023/03/03 03:01:22;;;;;;;74.20;14.02;;;0.80;99.90;;;;;;4984310;28;20108;-84
2023/03/03 03:03:48;;;;;;;99.82;15.15;;;0.80;99.90;;;;;;4983348;28;20096;-84
2023/03/03 03:06:14;;;;;;;86.15;15.85;;;0.80;99.90;;;;;;4997951;28;20504;-84
2023/03/03 03:08:39;;;;;;;61.05;13.80;;;1.40;99.90;;;;;;4978101;28;20097;-84
2023/03/03 03:11:05;;;;;;;78.18;15.38;;;0.70;99.90;;;;;;4969467;28;20026;-84
2023/03/03 03:13:32;;;;;;;115.65;17.00;;;0.70;99.90;;;;;;4983543;28;20049;-84
2023/03/03 03:15:58;;;;;;;135.02;17.92;;;0.80;99.90;;;;;;5000919;28;20038;-84
2023/03/03 03:18:25;;;;;;;113.05;17.10;;;0.90;99.90;;;;;;4975244;28;20034;-84
2023/03/03 03:20:51;;;;;;;93.60;15.70;;;0.70;99.90;;;;;;5004040;28;20041;-84
2023/03/03 03:23:17;;;;;;;99.28;15.45;;;0.80;99.90;;;;;;4986811;28;20026;-84
2023/03/03 03:25:46;;;;;;;147.13;20.80;;;0.80;99.90;;;;;;4983793;28;20120;-84
2023/03/03 03:28:14;;;;;;;130.43;16.42;;;1.50;99.90;;;;;;4986410;28;20046;-84
2023/03/03 03:30:40;;;;;;;70.80;14.77;;;0.70;99.90;;;;;;4987052;28;20080;-84
2023/03/03 03:33:07;;;;;;;92.40;16.10;;;0.80;99.90;;;;;;5007802;28;20097;-84
2023/03/03 03:35:33;;;;;;;90.90;13.52;;;1.10;99.90;;;;;;4998465;28;20034;-84
2023/03/03 03:37:59;;;;;;;85.63;15.48;;;1.10;99.90;;;;;;4999473;28;20655;-84
2023/03/03 03:40:25;;;;;;;65.20;12.50;;;0.80;99.90;;;;;;4986793;28;20038;-84
2023/03/03 03:42:52;;;;;;;105.20;17.00;;;1.20;99.90;;;;;;5003959;28;20053;-84
2023/03/03 03:45:18;;;;;;;90.45;14.73;;;0.80;99.90;;;;;;4979164;28;20042;-83
2023/03/03 03:47:44;;;;;;;159.73;16.90;;;1.40;99.90;;;;;;5012397;28;20431;-84
2023/03/03 03:50:11;;;;;;;103.43;16.65;;;0.80;99.90;;;;;;4987422;28;20052;-84
2023/03/03 03:52:37;;;;;;;80.45;13.13;;;0.80;99.90;;;;;;4982311;28;20122;-84
2023/03/03 03:55:03;;;;;;;105.68;14.70;;;1.60;99.90;;;;;;4984076;28;20128;-84
2023/03/03 03:57:29;;;;;;;100.43;14.60;;;0.80;99.90;;;;;;5002944;28;20038;-84
2023/03/03 03:59:55;;;;;;;177.95;18.13;;;0.80;99.90;;;;;;4970160;28;20096;-84
2023/03/03 04:02:20;;;;;;;147.52;16.95;;;0.90;99.90;;;;;;5002871;28;20519;-83
2023/03/03 04:04:46;;;;;;;137.73;17.40;;;0.80;99.90;;;;;;4986673;28;20042;-83
2023/03/03 04:07:12;;;;;;;201.50;18.75;;;1.10;99.90;;;;;;4971982;28;20039;-83
2023/03/03 04:09:38;;;;;;;183.23;21.98;;;0.90;99.90;;;;;;4990742;28;20045;-83
2023/03/03 04:12:04;;;;;;;232.45;25.52;;;0.90;99.90;;;;;;4999918;28;20034;-84
2023/03/03 04:14:30;;;;;;;241.73;22.08;;;0.90;99.90;;;;;;4998380;28;20553;-83
2023/03/03 04:16:55;;;;;;;176.20;18.50;;;0.90;99.90;;;;;;4971613;28;20181;-83
2023/03/03 04:19:21;;;;;;;246.05;24.83;;;0.90;99.90;;;;;;4973874;28;20444;-83
2023/03/03 04:21:48;;;;;;;170.18;19.40;;;0.90;99.90;;;;;;4994475;28;20065;-83
2023/03/03 04:24:14;;;;;;;244.25;24.30;;;1.50;99.90;;;;;;4998082;28;20043;-83
2023/03/03 04:26:39;;;;;;;278.15;28.38;;;1.00;99.90;;;;;;4984536;28;20065;-83
2023/03/03 04:29:05;;;;;;;233.02;25.27;;;1.10;99.90;;;;;;5003812;28;20745;-83
2023/03/03 04:31:31;;;;;;;199.70;21.45;;;1.00;99.90;;;;;;5014875;28;20038;-83
2023/03/03 04:33:57;;;;;;;239.18;24.00;;;1.00;99.90;;;;;;4985445;28;20042;-83
2023/03/03 04:36:23;;;;;;;174.18;20.58;;;1.00;99.90;;;;;;5000491;28;20056;-83
2023/03/03 04:38:49;;;;;;;193.23;22.67;;;1.00;99.90;;;;;;4986633;28;20038;-83
2023/03/03 04:41:15;;;;;;;166.45;20.17;;;1.00;99.90;;;;;;4999849;28;20504;-83
2023/03/03 04:43:41;;;;;;;257.00;28.35;;;1.00;99.90;;;;;;5001125;28;20431;-83
2023/03/03 04:46:07;;;;;;;184.68;21.52;;;1.40;99.90;;;;;;4995666;28;20042;-83
2023/03/03 04:48:32;;;;;;;305.42;29.30;;;1.20;99.90;;;;;;4988624;28;20494;-84
2023/03/03 04:50:58;;;;;;;305.85;29.95;;;1.00;99.90;;;;;;4987303;28;20046;-84
2023/03/03 04:53:24;;;;;;;157.80;20.30;;;1.30;99.90;;;;;;4975115;28;20046;-83
2023/03/03 04:55:51;;;;;;;242.27;24.80;;;1.00;99.90;;;;;;4974533;28;20034;-84
2023/03/03 04:58:18;;;;;;;230.85;23.52;;;1.10;99.90;;;;;;5007169;28;20616;-84
2023/03/03 05:00:52;;;;;;;173.40;20.88;;;1.10;99.90;;;;;;4980198;28;20041;-84
2023/03/03 05:03:18;;;;;;;224.48;22.27;;;1.10;99.90;;;;;;5006749;28;20438;-84
2023/03/03 05:05:46;;;;;;;317.15;32.05;;;1.10;99.90;;;;;;4990612;28;20056;-84
2023/03/03 05:08:12;;;;;;;151.55;19.08;;;1.10;99.90;;;;;;5027734;28;20041;-84
2023/03/03 05:10:38;;;;;;;185.75;21.15;;;1.10;99.90;;;;;;5019576;28;20128;-84
2023/03/03 05:13:04;;;;;;;180.40;23.95;;;1.10;99.90;;;;;;4968556;28;20128;-84
2023/03/03 05:15:31;;;;;;;149.77;20.45;;;1.10;99.90;;;;;;5009068;28;20044;-84
2023/03/03 05:17:57;;;;;;;205.07;23.52;;;1.10;99.90;;;;;;5008244;28;20088;-83
2023/03/03 05:20:23;;;;;;;115.53;17.58;;;1.10;99.90;;;;;;5012308;28;20038;-84
2023/03/03 05:22:49;;;;;;;198.07;22.75;;;1.10;99.90;;;;;;4975019;28;20034;-84
2023/03/03 05:25:15;;;;;;;167.32;22.73;;;1.70;99.90;;;;;;4978595;28;20064;-84
2023/03/03 05:27:42;;;;;;;137.88;18.98;;;1.10;99.90;;;;;;4975064;28;20060;-84
2023/03/03 05:30:09;;;;;;;175.73;22.83;;;1.10;99.90;;;;;;4981431;28;20108;-83
2023/03/03 05:32:35;;;;;;;229.90;25.63;;;1.10;99.90;;;;;;5002899;28;20073;-84
2023/03/03 05:35:01;;;;;;;211.68;25.73;;;1.10;99.90;;;;;;4990608;28;20081;-83
2023/03/03 05:37:27;;;;;;;187.88;22.00;;;1.20;99.90;;;;;;4979440;28;20042;-84
2023/03/03 05:39:53;;;;;;;122.97;17.77;;;1.30;99.90;;;;;;4990254;28;20752;-84
2023/03/03 05:42:19;;;;;;;144.63;21.67;;;1.10;99.90;;;;;;4968940;28;20048;-84
2023/03/03 05:44:44;;;;;;;111.45;18.17;;;1.10;99.90;;;;;;5016125;28;20045;-84
2023/03/03 05:47:10;;;;;;;141.88;19.83;;;1.20;99.90;;;;;;4991935;28;20033;-83
2023/03/03 05:49:36;;;;;;;88.53;16.83;;;1.20;99.90;;;;;;5004868;28;20054;-84
2023/03/03 05:52:02;;;;;;;111.63;17.67;;;1.20;99.90;;;;;;4975413;28;20050;-83
2023/03/03 05:54:28;;;;;;;107.95;17.17;;;1.20;99.90;;;;;;4998236;28;20044;-83
2023/03/03 05:56:53;;;;;;;77.80;15.10;;;1.20;99.90;;;;;;4991923;28;20514;-83
2023/03/03 05:59:19;;;;;;;172.27;22.48;;;1.20;99.90;;;;;;5003040;28;20056;-84
2023/03/03 06:01:45;;;;;;;112.82;18.27;;;1.20;99.90;;;;;;4985253;28;20053;-83
2023/03/03 06:04:11;;;;;;;128.00;19.55;;;1.20;99.90;;;;;;4986262;28;20042;-83
2023/03/03 06:06:36;;;;;;;144.00;23.00;;;1.20;99.90;;;;;;4999829;28;20049;-83
2023/03/03 06:09:02;;;;;;;83.25;16.73;;;1.20;99.90;;;;;;4968298;28;20042;-83
2023/03/03 06:11:28;;;;;;;130.57;20.30;;;1.20;99.90;;;;;;5006680;28;20092;-83
2023/03/03 06:13:54;;;;;;;101.55;19.33;;;1.20;99.90;;;;;;4988541;28;20121;-83
2023/03/03 06:16:20;;;;;;;161.73;22.45;;;1.20;99.90;;;;;;4977221;28;20045;-83
2023/03/03 06:18:46;;;;;;;128.30;20.70;;;1.20;99.90;;;;;;5001169;28;20061;-83
2023/03/03 06:21:11;;;;;;;102.93;16.67;;;1.40;99.90;;;;;;4986829;28;20038;-83
2023/03/03 06:23:37;;;;;;;86.50;15.93;;;1.20;99.90;;;;;;5005038;28;20156;-83
2023/03/03 06:26:03;;;;;;;100.10;18.90;;;1.20;99.90;;;;;;4988609;28;20038;-83
2023/03/03 06:28:28;;;;;;;87.72;18.77;;;1.20;99.90;;;;;;4975022;28;20076;-83
2023/03/03 06:30:55;;;;;;;83.32;17.10;;;1.20;99.90;;;;;;4988461;28;20531;-83
2023/03/03 06:33:21;;;;;;;77.55;17.73;;;1.20;99.90;;;;;;4987448;28;20065;-83
2023/03/03 06:35:51;;;;;;;93.85;18.05;;;1.20;99.90;;;;;;4986528;28;20030;-83
2023/03/03 06:38:17;;;;;;;87.95;18.25;;;1.30;99.90;;;;;;4982648;28;20108;-83
2023/03/03 06:40:44;;;;;;;79.70;17.02;;;1.20;99.90;;;;;;4988765;28;20479;-84
2023/03/03 06:43:10;;;;;;;73.22;18.88;;;1.30;99.90;;;;;;5006815;28;20145;-83
2023/03/03 06:45:36;;;;;;;70.80;16.90;;;1.30;99.90;;;;;;4972840;28;20038;-83
2023/03/03 06:48:02;;;;;;;47.85;15.18;;;1.30;99.90;;;;;;4983133;28;20553;-83
2023/03/03 06:50:28;;;;;;;63.25;16.92;;;1.30;99.90;;;;;;4987939;28;20243;-81
2023/03/03 06:53:27;;;;;;;61.08;16.13;;;1.30;99.90;;;;;;4998991;28;20698;-81
2023/03/03 06:55:55;;;;;;;61.85;15.70;;;1.30;99.90;;;;;;4955882;28;20503;-81
2023/03/03 06:58:23;;;;;;;32.17;12.77;;;1.30;99.90;;;;;;5002349;28;20033;-84
2023/03/03 07:00:59;;;;;;;34.08;12.52;;;1.30;99.90;;;;;;5004145;28;20123;-84
2023/03/03 07:03:31;;;;;;;43.10;15.20;;;1.40;99.90;;;;;;4983983;28;20526;-84
2023/03/03 07:05:57;;;;;;;40.47;14.70;;;1.40;99.90;;;;;;5007706;28;20113;-84
2023/03/03 07:08:24;;;;;;;39.42;14.23;;;1.40;99.90;;;;;;4998817;28;20861;-83
2023/03/03 07:10:51;;;;;;;33.70;12.73;;;1.50;99.90;;;;;;4985790;28;20038;-84
2023/03/03 07:13:28;;;;;;;34.03;12.70;;;1.50;99.90;;;;;;5019766;28;20053;-83
2023/03/03 07:16:01;;;;;;;28.85;10.40;;;1.50;99.90;;;;;;4988096;28;20046;-84
2023/03/03 07:18:31;;;;;;;35.08;14.20;;;1.50;99.90;;;;;;4986533;28;20039;-84
2023/03/03 07:20:58;;;;;;;35.17;13.65;;;1.60;99.90;;;;;;5005680;28;20046;-85
2023/03/03 07:23:41;;;;;;;28.08;10.68;;;1.60;99.90;;;;;;5003810;28;20041;-84
2023/03/03 07:26:17;;;;;;;;;;;1.60;99.90;;;;;;5014735;28;20176;-86
2023/03/03 07:28:51;;;;;;;33.70;12.73;;;1.60;99.90;;;;;;5006820;28;20330;-87
2023/03/03 07:31:30;;;;;;;35.10;12.80;;;1.70;99.90;;;;;;4985300;28;20041;-86
2023/03/03 07:33:58;;;;;;;36.08;12.98;;;1.70;99.90;;;;;;5005569;28;20096;-86
2023/03/03 07:36:28;;;;;;;31.65;11.57;;;2.60;99.90;;;;;;5002386;28;20040;-87
2023/03/03 07:38:58;;;;;;;34.30;13.23;;;1.80;99.90;;;;;;5001209;28;20041;-87
2023/03/03 07:41:24;;;;;;;35.97;13.35;;;2.50;99.90;;;;;;4994690;28;20068;-90
2023/03/03 07:44:20;;;;;;;40.22;13.00;;;2.60;99.90;;;;;;4957884;28;20041;-86
2023/03/03 07:46:47;;;;;;;34.67;13.73;;;2.00;99.90;;;;;;5001932;28;20045;-86
2023/03/03 07:49:34;;;;;;;37.03;13.82;;;2.00;99.90;;;;;;5007321;28;20070;-86
2023/03/03 07:52:00;;;;;;;30.73;11.82;;;2.10;99.90;;;;;;4992874;28;20046;-86
2023/03/03 07:54:39;;;;;;;36.65;12.57;;;2.60;99.90;;;;;;5017705;28;20037;-86
2023/03/03 07:57:11;;;;;;;41.88;13.63;;;2.20;99.90;;;;;;5015339;28;20428;-86
2023/03/03 07:59:39;;;;;;;44.80;13.93;;;2.20;99.90;;;;;;4992897;28;20069;-86
2023/03/03 08:02:27;;;;;;;35.50;13.05;;;2.30;99.90;;;;;;4992887;28;20037;-86
2023/03/03 08:04:53;;;;;;;31.70;11.60;;;2.40;99.90;;;;;;4992683;28;20037;-86
2023/03/03 08:07:22;;;;;;;35.03;13.15;;;2.90;99.90;;;;;;4992982;28;20096;-86
2023/03/03 08:09:53;;;;;;;35.53;14.02;;;2.70;99.90;;;;;;4992692;28;20034;-87
2023/03/03 08:12:26;;;;;;;35.60;12.90;;;2.80;99.90;;;;;;5008841;28;20539;-86
2023/03/03 08:14:52;;;;;;;;;;;3.40;99.90;;;;;;5009691;28;20034;-87
2023/03/03 08:17:25;;;;;;;33.72;12.50;;;3.30;99.90;;;;;;5010346;28;19967;-86
2023/03/03 08:19:52;;;;;;;28.55;12.65;;;3.10;99.90;;;;;;5000321;28;20069;-86
2023/03/03 08:22:39;;;;;;;30.02;11.65;;;3.80;99.90;;;;;;5008669;28;20290;-86
2023/03/03 08:25:05;;;;;;;28.67;13.45;;;3.20;99.90;;;;;;4998789;28;20046;-86
2023/03/03 08:27:30;;;;;;;32.08;13.63;;;3.20;99.90;;;;;;4963805;28;20091;-87
2023/03/03 08:29:56;;;;;;;29.23;12.40;;;3.20;99.90;;;;;;4984273;28;20154;-86
2023/03/03 08:32:22;;;;;;;31.42;11.90;;;3.30;99.90;;;;;;4977737;28;20036;-86
2023/03/03 08:34:47;;;;;;;27.48;11.23;;;3.30;99.90;;;;;;4967498;28;20033;-86
2023/03/03 08:37:13;;;;;;;29.25;11.57;;;3.60;99.90;;;;;;4981485;28;20037;-86
2023/03/03 08:39:39;;;;;;;31.25;11.60;;;3.30;99.90;;;;;;4980369;28;20117;-86
2023/03/03 08:42:05;;;;;;;31.83;11.57;;;3.40;99.90;;;;;;4996687;28;20041;-86
2023/03/03 08:44:30;;;;;;;25.88;11.20;;;3.40;99.90;;;;;;4979553;28;20550;-86
2023/03/03 08:46:56;;;;;;;29.60;12.20;;;3.50;99.90;;;;;;5021316;28;20085;-86
2023/03/03 08:49:22;;;;;;;29.15;12.27;;;3.90;99.90;;;;;;5012334;28;20566;-86
2023/03/03 08:51:47;;;;;;;27.08;10.50;;;3.60;99.90;;;;;;4980056;28;20046;-86
2023/03/03 08:54:13;;;;;;;26.73;11.20;;;4.20;99.90;;;;;;4979940;28;20033;-86
2023/03/03 08:56:39;;;;;;;24.77;11.00;;;4.50;99.90;;;;;;4995872;28;20053;-86
2023/03/03 08:59:04;;;;;;;23.77;10.48;;;4.00;99.90;;;;;;4964108;28;20609;-87
2023/03/03 09:01:31;;;;;;;22.23;10.18;;;3.90;99.90;;;;;;4974657;28;20381;-87
2023/03/03 09:03:57;;;;;;;22.58;11.05;;;4.30;99.90;;;;;;5014483;28;20073;-87
2023/03/03 09:06:23;;;;;;;26.48;11.02;;;4.40;99.90;;;;;;5012076;28;20073;-86
2023/03/03 09:08:49;;;;;;;25.45;10.30;;;3.90;99.90;;;;;;4992389;28;20041;-87
2023/03/03 09:11:25;;;;;;;25.20;9.57;;;4.00;99.90;;;;;;4998996;28;20060;-86
2023/03/03 09:13:58;;;;;;;22.77;10.55;;;4.10;99.90;;;;;;5026019;28;20572;-87
2023/03/03 09:16:24;;;;;;;28.40;10.95;;;4.20;99.90;;;;;;5012885;28;20049;-86
2023/03/03 09:18:49;;;;;;;22.83;9.90;;;4.10;99.90;;;;;;4994185;28;20041;-87
2023/03/03 09:21:31;;;;;;;23.33;9.32;;;4.30;99.90;;;;;;5014047;28;20483;-87
2023/03/03 09:24:00;;;;;;;20.45;8.80;;;4.30;99.90;;;;;;5001735;28;20165;-87
2023/03/03 09:26:27;;;;;;;19.45;9.65;;;4.50;99.90;;;;;;4980614;28;20479;-86
2023/03/03 09:29:14;;;;;;;20.73;8.80;;;4.60;99.90;;;;;;4997701;28;20168;-86
2023/03/03 09:32:00;;;;;;;18.95;9.40;;;4.70;99.90;;;;;;5011676;28;20077;-87
2023/03/03 09:34:41;;;;;;;16.60;8.25;;;4.90;99.90;;;;;;5000797;28;20537;-87
2023/03/03 09:37:26;;;;;;;18.05;7.85;;;4.90;99.90;;;;;;4980551;28;20034;-86
2023/03/03 09:39:56;;;;;;;19.80;8.52;;;4.90;99.90;;;;;;5011937;28;20155;-86
2023/03/03 09:42:42;;;;;;;19.63;8.45;;;5.00;99.90;;;;;;4998983;28;20042;-87
2023/03/03 09:45:39;;;;;;;17.55;7.50;;;5.20;99.90;;;;;;4998378;28;20060;-86
2023/03/03 09:48:15;;;;;;;19.60;10.00;;;5.30;99.90;;;;;;4993550;28;20424;-87
2023/03/03 09:50:48;;;;;;;19.80;8.88;;;5.50;99.90;;;;;;4994789;28;20054;-87
2023/03/03 09:53:18;;;;;;;20.73;8.88;;;5.70;99.90;;;;;;4999068;28;20041;-86
2023/03/03 09:56:25;;;;;;;21.85;8.55;;;5.90;99.90;;;;;;5012200;28;20037;-86
2023/03/03 09:59:07;;;;;;;18.52;8.85;;;6.00;99.90;;;;;;5010012;28;20058;-86
2023/03/03 10:01:36;;;;;;;17.27;7.68;;;6.00;99.90;;;;;;5010883;28;20038;-86
2023/03/03 10:04:29;;;;;;;20.58;8.13;;;6.00;99.90;;;;;;5009065;28;20042;-86
2023/03/03 10:07:10;;;;;;;16.65;8.63;;;5.80;99.90;;;;;;4994603;28;20048;-86
2023/03/03 10:09:59;;;;;;;15.88;8.38;;;5.70;99.90;;;;;;4994252;28;20042;-87
2023/03/03 10:12:31;;;;;;;15.95;7.80;;;5.80;99.90;;;;;;5010884;28;20120;-86
2023/03/03 10:15:16;;;;;;;17.20;7.57;;;5.50;99.90;;;;;;4994575;28;20514;-86
2023/03/03 10:17:52;;;;;;;16.10;8.45;;;5.50;99.90;;;;;;4994906;28;20041;-87
2023/03/03 10:20:31;;;;;;;15.13;7.38;;;5.40;99.90;;;;;;4996115;28;20072;-86
2023/03/03 10:23:39;;;;;;;11.13;6.53;;;5.50;99.90;;;;;;4993025;28;20048;-86
2023/03/03 10:26:16;;;;;;;13.45;6.28;;;5.20;99.90;;;;;;4994671;28;20184;-86
2023/03/03 10:29:15;;;;;;;13.75;6.55;;;5.10;99.90;;;;;;5000806;28;20052;-87
2023/03/03 10:31:43;;;;;;;12.25;5.80;;;5.20;99.90;;;;;;5021969;28;20137;-86
2023/03/03 10:34:34;;;;;;;15.30;6.45;;;5.20;99.90;;;;;;4996487;28;20033;-86
2023/03/03 10:37:18;;;;;;;18.40;7.13;;;5.20;99.90;;;;;;4994487;28;20395;-86
2023/03/03 10:40:10;;;;;;;13.93;7.35;;;5.30;99.90;;;;;;4995141;28;20056;-86
2023/03/03 10:43:01;;;;;;;16.10;7.03;;;5.20;99.90;;;;;;5015268;28;20096;-86
2023/03/03 10:45:48;;;;;;;17.83;6.80;;;5.20;99.90;;;;;;4991255;28;20505;-86
2023/03/03 10:48:43;;;;;;;13.55;6.72;;;5.20;99.90;;;;;;4995463;28;20038;-86
2023/03/03 10:51:35;;;;;;;13.60;6.80;;;5.30;99.90;;;;;;4989195;28;20107;-86
2023/03/03 10:54:38;;;;;;;15.35;7.68;;;5.20;99.90;;;;;;5013762;28;20033;-86
2023/03/03 10:57:33;;;;;;;12.98;6.30;;;5.20;99.90;;;;;;5023596;28;20104;-86
2023/03/03 11:00:10;;;;;;;15.23;6.70;;;5.20;99.90;;;;;;5006787;28;20045;-87
2023/03/03 11:03:01;;;;;;;10.55;6.80;;;5.20;99.90;;;;;;5009612;28;20522;-87
2023/03/03 11:05:37;;;;;;;16.55;6.55;;;5.20;99.90;;;;;;5026012;28;20535;-86
2023/03/03 11:08:12;;;;;;;11.90;6.60;;;5.20;99.90;;;;;;5021013;28;20048;-87
2023/03/03 11:11:03;;;;;;;13.02;6.60;;;5.20;99.90;;;;;;4992140;28;20065;-87
2023/03/03 11:13:57;;;;;;;11.18;6.50;;;5.20;99.90;;;;;;4984890;28;20038;-86
2023/03/03 11:16:35;;;;;;;17.27;7.53;;;5.20;99.90;;;;;;4997338;28;20096;-89
2023/03/03 11:19:23;;;;;;;17.02;6.82;;;5.30;99.90;;;;;;5010921;28;20057;-88
2023/03/03 11:22:06;;;;;;;14.02;6.97;;;5.30;99.90;;;;;;4990316;28;20046;-87
2023/03/03 11:24:56;;;;;;;10.73;6.20;;;5.40;99.90;;;;;;5011349;28;20037;-88
2023/03/03 11:27:34;;;;;;;11.70;6.85;;;5.50;99.90;;;;;;5008038;28;20495;-87
2023/03/03 11:30:18;;;;;;;13.52;6.35;;;5.60;99.90;;;;;;4988847;28;20069;-87
2023/03/03 11:32:57;;;;;;;12.80;6.10;;;5.70;99.90;;;;;;5011317;28;20088;-87
2023/03/03 11:35:35;;;;;;;9.70;6.18;;;5.80;99.90;;;;;;4999294;28;20037;-87
2023/03/03 11:38:26;;;;;;;13.02;6.22;;;5.90;99.90;;;;;;4997588;28;20113;-87
2023/03/03 11:41:19;;;;;;;11.05;5.70;;;6.00;99.90;;;;;;5019192;28;20076;-86
2023/03/03 11:43:54;;;;;;;8.73;5.32;;;6.10;99.90;;;;;;5004755;28;20030;-87
2023/03/03 11:46:39;;;;;;;11.38;5.35;;;6.40;99.90;;;;;;4995378;28;20053;-86
2023/03/03 11:49:14;;;;;;;10.10;5.65;;;6.30;99.90;;;;;;5021397;28;20125;-83
2023/03/03 11:52:15;;;;;;;12.73;5.75;;;6.30;99.90;;;;;;4996243;28;20050;-84
2023/03/03 11:55:02;;;;;;;10.75;5.60;;;6.40;99.90;;;;;;4989576;28;20034;-84
2023/03/03 11:57:36;;;;;;;13.07;5.78;;;6.50;99.90;;;;;;4991642;28;20041;-87
2023/03/03 12:00:17;;;;;;;12.52;5.40;;;6.50;99.90;;;;;;5001293;28;20046;-85
2023/03/03 12:03:02;;;;;;;10.48;5.38;;;6.50;99.90;;;;;;5005536;28;20095;-84
2023/03/03 12:05:49;;;;;;;10.45;5.25;;;6.50;99.90;;;;;;5006758;28;20045;-83
2023/03/03 12:08:40;;;;;;;11.40;6.00;;;6.50;99.90;;;;;;4986647;28;20129;-82
2023/03/03 12:11:17;;;;;;;11.32;5.55;;;6.40;99.90;;;;;;5003247;28;20038;-85
2023/03/03 12:14:07;;;;;;;11.35;5.53;;;6.50;99.90;;;;;;4985908;28;20501;-83
2023/03/03 12:16:45;;;;;;;7.18;4.40;;;6.60;99.90;;;;;;4993356;28;20042;-85
2023/03/03 12:19:48;;;;;;;10.80;4.60;;;6.50;99.90;;;;;;5007877;28;20116;-85
2023/03/03 12:23:03;;;;;;;8.57;4.90;;;6.60;99.90;;;;;;5018551;28;20042;-85
2023/03/03 12:25:45;;;;;;;8.00;4.35;;;6.70;99.90;;;;;;4978270;28;20045;-88
2023/03/03 12:28:31;;;;;;;6.57;4.20;;;6.80;99.90;;;;;;4992657;28;20034;-89
2023/03/03 12:31:12;;;;;;;8.35;4.85;;;6.90;99.90;;;;;;4996154;28;20052;-89
2023/03/03 12:34:16;;;;;;;8.77;4.43;;;7.00;99.90;;;;;;4997763;28;20110;-87
2023/03/03 12:37:06;;;;;;;5.82;3.67;;;7.10;99.90;;;;;;5000502;28;20038;-83
2023/03/03 12:39:38;;;;;;;6.40;3.72;;;7.20;99.90;;;;;;5003569;28;20434;-85
2023/03/03 12:42:21;;;;;;;6.85;4.30;;;7.20;99.90;;;;;;5005699;28;20686;-88
2023/03/03 12:44:53;;;;;;;;;;;7.40;99.90;;;;;;4996806;28;20033;-91
2023/03/03 12:47:48;;;;;;;9.43;3.53;;;7.50;99.90;;;;;;5004263;28;19922;-88
2023/03/03 12:50:43;;;;;;;5.68;2.30;;;7.70;99.90;;;;;;4998629;28;20060;-86
2023/03/03 12:53:29;;;;;;;4.72;2.75;;;7.50;99.90;;;;;;4987773;28;20129;-85
2023/03/03 12:56:04;;;;;;;4.95;2.97;;;7.60;99.90;;;;;;5008114;28;20041;-85
2023/03/03 12:58:45;;;;;;;6.05;3.22;;;7.60;99.90;;;;;;4991117;28;20055;-87
2023/03/03 13:01:21;;;;;;;4.60;2.55;;;7.50;99.90;;;;;;4990166;28;20165;-87
2023/03/03 13:04:08;;;;;;;6.35;2.60;;;7.50;99.90;;;;;;4991679;28;20041;-87
2023/03/03 13:06:47;;;;;;;6.75;3.10;;;7.40;99.90;;;;;;5007922;28;20091;-88